AGROMETEOROLOŠKI PORTAL

vinorodna pokrajina

Temelj dobrega kmetovanja

Pregled podatkov za lokacijo Miren., meteorološka postaja 512602

Pregled senzorjev na lokaciji

ID Ime Zadnja
vrednost
Datum in čas
meritve
(lokalni čas)
Tip
senzorja
5002 Omočenost lista (1,5 m) (U) 0 U 29.9.2022 13:30 A730WET
5077 Padavine (mm) 0 mm 29.9.2022 13:30 Generic 0.2 mm
4998 Relativna zračna vlaga (2 m) (%RH) 69 %RH 29.9.2022 13:30 50YA
4997 Temperatura (2 m) (°C) 21,3 °C 29.9.2022 13:30 50YA
5000 Smer vetra (3 m) (°) 105 ° 29.9.2022 13:30 566.2S-130
4999 Hitrost vetra (3 m) (km/h) 8 km/h 29.9.2022 13:30 566.2S-176 (200km/h)

Pregled podatkov zadnjih 24 ur

Zap.
št.
Datum in čas
(lokalni čas)
Miren.
Omočenost
lista
(1,5
m)
Padavine Relativna
zračna
vlaga
(2
m)
Temperatura
(2
m)
Smer
vetra
(3
m)
Hitrost
vetra
(3
m)
1 29.9.2022 13:30 0 0 68,7 21,3 104,8 7,5
2 29.9.2022 13:00 0 0 71,6 21,3 206,2 7,9
3 29.9.2022 12:30 0 0 74,9 20,8 150,2 7
4 29.9.2022 12:00 0 0 74 21,3 154,5 7
5 29.9.2022 11:30 1 0 76,7 20,7 227,3 5,4
6 29.9.2022 11:00 5 0 91,6 20,6 286,5 2,3
7 29.9.2022 10:30 9 0 100 18,3 112,5 1,7
8 29.9.2022 10:00 10 0 100 16,2 1,2 1,8
9 29.9.2022 09:30 10 0 100 15,6 211,1 0,2
10 29.9.2022 09:00 10 0 100 14,5 262,7 0,8
11 29.9.2022 08:30 10 0 100 13,4 70,1 0,4
12 29.9.2022 08:00 10 0 100 12,6 114,7 1,4
13 29.9.2022 07:30 10 0 100 12,4 112 0,6
14 29.9.2022 07:00 10 0 100 12,3 119 0,8
15 29.9.2022 06:30 10 0 100 12,5 177,6 0,9
16 29.9.2022 06:00 10 0 100 12,9 124,2 1,1
17 29.9.2022 05:30 10 0 100 13 134,6 0,7
18 29.9.2022 05:00 10 0 100 12,8 113,4 1,1
19 29.9.2022 04:30 10 0 100 12,6 137,4 0,6
20 29.9.2022 04:00 10 0 100 12,3 136 0,3
21 29.9.2022 03:30 10 0 100 12,1 168,9 0,5
22 29.9.2022 03:00 10 0 100 12,1 123 0,8
23 29.9.2022 02:30 10 0 100 12,7 153,5 0,7
24 29.9.2022 02:00 10 0 100 13,1 113 0,1
25 29.9.2022 01:30 10 0 100 13,2 126,8 0,2
26 29.9.2022 01:00 10 0 100 13,2 145,1 0,9
27 29.9.2022 00:30 10 0 99,8 12,9 176,5 0,7
28 29.9.2022 00:00 10 0 99,7 13,5 164,6 2
29 28.9.2022 23:30 10 0 99,3 13,8 116 1,5
30 28.9.2022 23:00 10 0 99 14,4 164,3 1,9
31 28.9.2022 22:30 10 0,2 99 15 27,7 1,6
32 28.9.2022 22:00 10 0 98,9 15,3 237,2 1,8
33 28.9.2022 21:30 10 0 98,3 15,5 312,8 1,2
34 28.9.2022 21:00 10 0 98,5 15,5 111,4 2,6
35 28.9.2022 20:30 10 0,4 97,9 15,7 112,6 2
36 28.9.2022 20:00 10 1,4 96,6 15,8 260,8 2,3
37 28.9.2022 19:30 10 0 95,4 16 97,8 0,5
38 28.9.2022 19:00 10 0 92,9 16,5 133,3 0,3
39 28.9.2022 18:30 3 0 90 17,3 132,1 0,4
40 28.9.2022 18:00 0 0 78,1 18,6 145 1,7
41 28.9.2022 17:30 0 0 71,8 19,3 301,5 3,8
42 28.9.2022 17:00 0 0 72,8 19,7 209,4 3,2
43 28.9.2022 16:30 1 0 74 19,7 123,8 4
44 28.9.2022 16:00 2 0 85,1 19 58,6 1,8
45 28.9.2022 15:30 3 0 89,3 18,3 75,3 1,7
46 28.9.2022 15:00 5 0 91 17,3 46,5 1,5